• Join FlightAware (Why Join?)
  • Login
  • US Flag 
02:41PM EST


 

Airport Tracker/Info


-or-


 

Live Flight TrackerFlight Track Log ✈ N913FD ✈ 10-May-2013 ✈ KDSM - KMEM

Flight Track Log - Related Links

Times and Time Zones

All times are in EDT time to prevent confusion due to time zone crossing. See the N913FD flight status page for this flight to view local times or setup timezone preferences in your user account.

Time Position Orientation Groundspeed Altitude Reporting Facility
EDT Latitude Longitude Course Direction KTS MPH feet Rate Location/Type
08:43AM 41.5472 -93.6606 309° West 156 180 1,400  Level Minneapolis Center
08:44AM 41.5725 -93.7028 309° West 172 198 3,400 2,640 Climbing Minneapolis Center
08:45AM 41.5769 -93.7900 274° West 233 268 6,000 2,820 Climbing Minneapolis Center
08:46AM 41.5253 -93.8433 218° Southwest 291 335 9,200 1,920 Climbing Minneapolis Center
08:47AM 41.4478 -93.7839 150° Southeast 323 372 10,000 660 Climbing Minneapolis Center
08:48AM 41.3608 -93.7019 145° Southeast 383 441 10,600 1,920 Climbing Minneapolis Center
08:49AM 41.2633 -93.6142 146° Southeast 393 452 14,000 2,700 Climbing Minneapolis Center
08:50AM 41.1697 -93.5275 145° Southeast 409 471 16,700 2,160 Climbing Minneapolis Center
08:51AM 41.0600 -93.4272 145° Southeast 419 482 19,400 2,040 Climbing Minneapolis Center
08:57AM 40.3870 -92.8170 145° Southeast 469 540 31,800 1,980 Climbing FlightAware
08:58AM 40.3060 -92.7450 146° Southeast 467 537 33,000 1,500 Climbing FlightAware
08:59AM 40.2340 -92.6810 146° Southeast 473 544 34,000 1,620 Climbing FlightAware
08:59AM 40.1610 -92.6160 146° Southeast 468 539 35,200 1,680 Climbing FlightAware
09:00AM 40.0760 -92.5660 156° South 455 524 36,400 1,260 Climbing FlightAware
09:01AM 39.9940 -92.5300 161° South 461 531 37,000 480 Climbing FlightAware
09:01AM 39.9230 -92.5010 163° South 463 533 37,000  Level FlightAware
09:02AM 39.8210 -92.4560 161° South 462 532 37,000  Level FlightAware
09:03AM 39.7380 -92.4220 163° South 456 525 37,000  Level FlightAware
09:03AM 39.6790 -92.3960 161° South 454 522 37,000 -780 Level FlightAware
09:04AM 39.5720 -92.3510 162° South 450 518 35,900 -1,440 Descending FlightAware
09:05AM 39.5020 -92.3220 162° South 443 510 35,000 -660 Descending FlightAware
09:06AM 39.4110 -92.2820 161° South 441 507 35,000  Level FlightAware
09:06AM 39.3110 -92.2390 162° South 444 511 35,000  Level FlightAware
09:07AM 39.2450 -92.2100 161° South 444 511 35,000  Level FlightAware
09:08AM 39.1620 -92.1730 161° South 444 511 35,000  Level FlightAware
09:09AM 39.0960 -92.1440 161° South 444 511 35,000  Level FlightAware
09:09AM 38.9650 -92.0960 164° South 441 507 35,000  Level FlightAware
09:10AM 38.8890 -92.0640 162° South 442 509 35,000  Level FlightAware
09:11AM 38.8260 -92.0380 162° South 442 509 35,000  Level FlightAware
09:11AM 38.7440 -92.0040 162° South 442 509 35,000  Level FlightAware
09:12AM 38.6770 -91.9760 162° South 442 509 35,000  Level FlightAware
09:13AM 38.6110 -91.9480 162° South 442 509 35,000  Level FlightAware
09:13AM 38.5450 -91.9210 162° South 442 509 35,000  Level FlightAware
09:14AM 38.4790 -91.8940 162° South 442 509 35,000  Level FlightAware
09:15AM 38.3960 -91.8590 162° South 442 509 35,000  Level FlightAware
09:16AM 38.3140 -91.8250 162° South 442 509 35,000  Level FlightAware
09:16AM 38.2480 -91.7980 162° South 442 509 35,000  Level FlightAware
09:17AM 38.1810 -91.7700 162° South 442 509 35,000  Level FlightAware
09:18AM 38.1150 -91.7430 162° South 442 509 35,000  Level FlightAware
09:18AM 38.0490 -91.7160 162° South 442 509 35,000  Level FlightAware
09:19AM 37.9670 -91.6820 162° South 442 509 35,000  Level FlightAware
09:20AM 37.9000 -91.6540 162° South 442 509 35,000 -1,320 Level FlightAware
09:21AM 37.6342 -91.5531 162° South 442 509 33,000 -1,080 Descending Kansas City Center
09:22AM 37.5136 -91.5044 162° South 449 517 33,000  Level Kansas City Center
09:23AM 37.3922 -91.4572 163° South 453 521 33,000  Level Kansas City Center
09:24AM 37.2742 -91.4097 162° South 446 513 33,000  Level Kansas City Center
09:25AM 37.1553 -91.3642 163° South 444 511 33,000  Level Kansas City Center
09:26AM 37.0428 -91.3158 161° South 452 520 33,000  Level Memphis Center
09:27AM 36.9161 -91.2728 165° South 439 505 33,000  Level Memphis Center
09:28AM 36.8039 -91.2225 160° South 434 499 33,000  Level Memphis Center
09:29AM 36.6875 -91.1797 164° South 434 499 33,000  Level Memphis Center
09:30AM 36.5731 -91.1347 162° South 434 499 33,000  Level Memphis Center
09:31AM 36.4525 -91.0922 164° South 439 505 33,000 -1,200 Level Memphis Center
09:32AM 36.3422 -91.0475 162° South 439 505 30,600 -3,360 Descending Memphis Center
09:33AM 36.2217 -91.0003 162° South 440 506 26,300 -2,880 Descending Memphis Center
09:34AM 36.1008 -90.9556 163° South 446 513 24,900 -1,860 Descending Memphis Center
09:35AM 35.9925 -90.9292 169° South 426 490 22,600 -2,340 Descending Memphis Center
09:36AM 35.8886 -90.9003 167° South 407 468 20,300 -2,280 Descending Memphis Center
09:37AM 35.7864 -90.8714 167° South 389 448 18,100 -1,980 Descending Memphis Center
09:38AM 35.7053 -90.8506 168° South 378 435 16,400 -2,100 Descending Memphis Center
09:39AM 35.5886 -90.8217 169° South 366 421 13,900 -2,580 Descending Memphis Center
09:40AM 35.4925 -90.7956 168° South 360 414 11,300 -1,560 Descending Memphis Center
09:41AM 35.4367 -90.7189 132° Southeast 302 348 10,800 -780 Descending Memphis Center
09:42AM 35.4200 -90.6247 102° East 279 321 9,800 -1,140 Descending Memphis Center
09:43AM 35.4203 -90.5253 90° East 268 308 8,600 -1,200 Descending Memphis Center
09:44AM 35.4183 -90.4333 91° East 274 315 7,400 -1,020 Descending Memphis Center
09:45AM 35.4161 -90.3444 92° East 261 300 6,600 -720 Descending Memphis Center
09:46AM 35.4142 -90.2628 92° East 246 283 6,000 -540 Descending Memphis Center
09:47AM 35.4119 -90.1814 92° East 236 272 5,600 -540 Descending Memphis Center
09:48AM 35.4117 -90.1075 90° East 236 272 5,000 -540 Descending Memphis Center
09:49AM 35.4117 -90.0336 90° East 230 265 4,600 -540 Descending Memphis Center
09:50AM 35.3656 -89.9981 148° Southeast 186 214 4,000 -420 Descending Memphis Center
09:50AM 35.3333 -90.0000 183° South 203 234 4,000  Level KMEM
09:51AM 35.2833 -89.9833 165° South 201 231 4,000 -180 Level KMEM
09:52AM 35.2333 -89.9833 180° South 175 201 3,700 -600 Descending KMEM
09:53AM 35.1833 -89.9833 180° South 180 207 2,900 -900 Descending KMEM
09:54AM 35.1333 -89.9833 180° South 148 170 2,100 -780 Descending KMEM
09:55AM 35.1000 -89.9833 180° South 112 129 1,500 -720 Descending KMEM
09:56AM 35.0667 -89.9833 180° South 117 135 800 -780 Descending KMEM
09:58AM 35.0424 -89.9767 156° South  Level Estimated
10:05AM 35.0424 -89.9767 156° South  Level Estimated
10:06AM 35.0424 -89.9767 156° South  Level Estimated
10:07AM 35.0424 -89.9767 156° South  Level Estimated
10:08AM 35.0424 -89.9767 156° South  Level Estimated
10:09AM 35.0424 -89.9767 156° South  Level Estimated
10:10AM 35.0424 -89.9767 156° South  Level Estimated